Terminal Aerodrome Forecast
Issued by NWS Greer, SC

Home | Current Version | Previous Version | Text Only | Print | Product List | Glossary On
Versions: 1 2 3 4 5 6 7 8 9 10 11 12 13 14
000
FTUS42 KGSP 181900 AAA
TAFGSP
TAF AMD
KGSP 181954Z 1820/1918 04010KT P6SM -RA OVC080
     FM190200 03015G24KT 5SM RA BR OVC007
     FM191400 03018G29KT P6SM -RA OVC007=

USA.gov is the U.S. government's official web portal to all federal, state and local government web resources and services.